KTMB/TMB METAR and TAF weather

Enter ICAO airport designator
Station Type Date Time Source
KTMB METAR 2020/04/03 06:53 UTC NOAA

KTMB 030653Z AUTO 08003KT 10SM CLR 21/16 A2994 RMK AO2 SLP139 T02110161


Station Type Date Time Source
KTMB Decoded METAR 2020/04/03 06:53 UTC NOAA

KENDALL-TAMIAMI EXEC AIRPORT , FL, United States (KTMB) 25-39N 080-26W 2M
Apr 03, 2020 - 02:53 AM EDT / 2020.04.03 0653 UTC
Wind: from the E (080 degrees) at 3 MPH (3 KT):0
Visibility: 10 mile(s):0
Sky conditions: clear
Temperature: 70.0 F (21.1 C)
Dew Point: 61.0 F (16.1 C)
Relative Humidity: 73%
Pressure (altimeter): 29.94 in. Hg (1013 hPa)
ob: KTMB 030653Z AUTO 08003KT 10SM CLR 21/16 A2994 RMK AO2 SLP139 T02110161
cycle: 7

Station Type Date Time Source
KTMB TAF 2020/04/03 06:42 UTC NOAA

TAF KTMB 030541Z 0306/0406 06006KT P6SM BKN050
FM031600 12010KT P6SM FEW050

Example: see airport list